createdAt,value
2018-03-16T00:00:41.896Z,93224.63
2018-03-16T00:03:10.310Z,93226.63
2018-03-16T00:05:38.711Z,93233.58
2018-03-16T00:08:07.096Z,93228.87
2018-03-16T00:10:35.639Z,93228.09
2018-03-16T00:13:04.108Z,93238.95
2018-03-16T00:15:32.726Z,93238.77
2018-03-16T00:18:01.124Z,93237.83
2018-03-16T00:20:29.520Z,93229.45
2018-03-16T00:22:57.991Z,93231.67
2018-03-16T00:25:26.402Z,93235.69
2018-03-16T00:27:54.806Z,93239.63
2018-03-16T00:30:23.193Z,93237.94
2018-03-16T00:32:51.603Z,93240.08
2018-03-16T00:35:20.157Z,93239.62
2018-03-16T00:37:48.552Z,93245.12
2018-03-16T00:40:16.948Z,93241.32
2018-03-16T00:42:45.356Z,93245.96
2018-03-16T00:45:13.747Z,93244.49
2018-03-16T00:47:42.152Z,93242.23
2018-03-16T00:50:10.545Z,93247.06
2018-03-16T00:52:39.011Z,93252.89
2018-03-16T00:55:07.408Z,93249.79
2018-03-16T00:57:35.825Z,93252.20
2018-03-16T01:00:04.215Z,93259.46
2018-03-16T01:02:32.613Z,93267.82
2018-03-16T01:05:01.077Z,93264.44
2018-03-16T01:07:29.476Z,93268.31
2018-03-16T01:09:57.971Z,93271.84
2018-03-16T01:14:53.904Z,93264.61
2018-03-16T01:17:22.379Z,93259.52
2018-03-16T01:19:50.781Z,93268.21
2018-03-16T01:22:19.296Z,93263.47
2018-03-16T01:24:47.708Z,93262.14
2018-03-16T01:27:16.157Z,93258.84
2018-03-16T01:29:44.557Z,93259.80
2018-03-16T01:32:12.959Z,93264.04
2018-03-16T01:34:41.381Z,93268.70
2018-03-16T01:37:09.807Z,93264.66
2018-03-16T01:39:38.230Z,93263.33
2018-03-16T01:42:06.620Z,93260.86
2018-03-16T01:44:35.068Z,93258.78
2018-03-16T01:47:03.474Z,93254.75
2018-03-16T01:49:31.873Z,93261.60
2018-03-16T01:52:00.272Z,93263.98
2018-03-16T01:54:28.804Z,93267.19
2018-03-16T01:56:57.204Z,93259.74
2018-03-16T01:59:25.628Z,93259.66
2018-03-16T02:01:54.137Z,93257.77
2018-03-16T02:04:22.691Z,93256.53
2018-03-16T02:06:51.178Z,93264.15
2018-03-16T02:09:19.571Z,93260.33
2018-03-16T02:11:47.978Z,93259.16
2018-03-16T02:14:16.375Z,93262.03
2018-03-16T02:16:44.768Z,93262.70
2018-03-16T02:19:13.215Z,93254.71
2018-03-16T02:21:41.693Z,93262.00
2018-03-16T02:24:10.107Z,93261.88
2018-03-16T02:26:38.515Z,93254.67
2018-03-16T02:29:07.019Z,93255.41
2018-03-16T02:31:35.706Z,93260.02
2018-03-16T02:34:04.115Z,93253.00
2018-03-16T02:36:32.533Z,93253.09
2018-03-16T02:39:00.925Z,93258.99
2018-03-16T02:41:29.395Z,93263.59
2018-03-16T02:43:57.844Z,93261.13
2018-03-16T02:46:26.254Z,93257.51
2018-03-16T02:48:54.716Z,93255.66
2018-03-16T02:51:23.125Z,93253.95
2018-03-16T02:53:51.521Z,93261.84
2018-03-16T02:56:19.980Z,93257.05
2018-03-16T02:58:48.368Z,93256.13
2018-03-16T03:01:16.767Z,93260.07
2018-03-16T03:03:45.223Z,93254.05
2018-03-16T03:06:13.630Z,93252.31
2018-03-16T03:08:42.034Z,93259.86
2018-03-16T03:11:10.426Z,93268.74
2018-03-16T03:13:38.991Z,93265.53
2018-03-16T03:16:07.468Z,93260.71
2018-03-16T03:18:35.863Z,93266.28
2018-03-16T03:21:04.273Z,93263.08
2018-03-16T03:23:32.705Z,93266.30
2018-03-16T03:26:01.331Z,93269.77
2018-03-16T03:28:29.728Z,93272.55
2018-03-16T03:30:58.132Z,93272.55
2018-03-16T03:33:26.597Z,93266.03
2018-03-16T03:35:54.992Z,93275.77
2018-03-16T03:38:23.419Z,93276.65
2018-03-16T03:40:51.795Z,93274.98
2018-03-16T03:43:20.254Z,93280.19
2018-03-16T03:45:48.633Z,93276.02
2018-03-16T03:48:17.038Z,93282.64
2018-03-16T03:50:45.435Z,93287.74
2018-03-16T03:53:13.838Z,93290.69
2018-03-16T03:55:42.340Z,93284.45
2018-03-16T03:58:10.716Z,93282.16
2018-03-16T04:00:39.264Z,93282.36
2018-03-16T04:03:07.675Z,93285.41
2018-03-16T04:05:36.119Z,93281.52
2018-03-16T04:08:04.529Z,93284.58
2018-03-16T04:10:33.012Z,93284.92
2018-03-16T04:13:01.415Z,93289.83
2018-03-16T04:15:29.803Z,93293.82
2018-03-16T04:17:58.253Z,93291.51
2018-03-16T04:20:26.648Z,93293.77
2018-03-16T04:22:55.035Z,93294.06
2018-03-16T04:25:23.439Z,93296.42
2018-03-16T04:27:51.927Z,93300.23
2018-03-16T04:30:20.372Z,93301.20
2018-03-16T04:32:48.794Z,93297.88
2018-03-16T04:35:17.423Z,93299.31
2018-03-16T04:37:45.900Z,93306.56
2018-03-16T04:40:14.414Z,93301.16
2018-03-16T04:42:43.018Z,93302.32
2018-03-16T04:45:11.416Z,93310.42
2018-03-16T04:47:39.804Z,93311.06
2018-03-16T04:50:08.205Z,93311.05
2018-03-16T04:52:36.592Z,93313.70
2018-03-16T04:55:05.268Z,93315.29
2018-03-16T04:57:33.651Z,93317.69
2018-03-16T05:00:02.024Z,93321.06
2018-03-16T05:02:30.409Z,93321.97
2018-03-16T05:04:59.001Z,93323.02
2018-03-16T05:07:27.429Z,93324.81
2018-03-16T05:09:55.813Z,93328.88
2018-03-16T05:12:24.261Z,93322.22
2018-03-16T05:14:52.656Z,93324.58
2018-03-16T05:17:21.057Z,93323.19
2018-03-16T05:19:49.440Z,93327.18
2018-03-16T05:22:17.897Z,93330.33
2018-03-16T05:24:46.387Z,93326.61
2018-03-16T05:27:14.756Z,93330.24
2018-03-16T05:29:43.146Z,93338.37
2018-03-16T05:32:11.527Z,93338.59
2018-03-16T05:34:39.930Z,93333.59
2018-03-16T05:37:08.441Z,93337.23
2018-03-16T05:39:36.834Z,93339.23
2018-03-16T05:42:05.506Z,93332.63
2018-03-16T05:44:33.951Z,93332.94
2018-03-16T05:47:02.443Z,93331.28
2018-03-16T05:49:30.937Z,93338.39
2018-03-16T05:51:59.409Z,93349.55
2018-03-16T05:54:27.910Z,93355.88
2018-03-16T05:56:56.287Z,93350.50
2018-03-16T05:59:24.758Z,93349.36
2018-03-16T06:01:53.135Z,93347.95
2018-03-16T06:04:21.624Z,93359.49
2018-03-16T06:06:50.008Z,93362.72
2018-03-16T06:09:18.396Z,93361.89
2018-03-16T06:11:46.872Z,93361.38
2018-03-16T06:14:15.363Z,93355.37
2018-03-16T06:16:43.823Z,93362.77
2018-03-16T06:19:12.296Z,93360.47
2018-03-16T06:21:40.692Z,93361.03
2018-03-16T06:24:09.522Z,93360.78
2018-03-16T06:26:37.905Z,93369.14
2018-03-16T06:29:06.321Z,93364.48
2018-03-16T06:31:36.784Z,93369.87
2018-03-16T06:34:05.186Z,93369.89
2018-03-16T06:36:33.976Z,93373.42
2018-03-16T06:39:02.375Z,93368.83
2018-03-16T06:41:30.777Z,93377.58
2018-03-16T06:43:59.202Z,93377.30
2018-03-16T06:46:27.596Z,93381.70
2018-03-16T06:48:56.041Z,93377.23
2018-03-16T06:51:24.415Z,93386.25
2018-03-16T06:53:52.796Z,93387.44
2018-03-16T06:56:21.178Z,93390.63
2018-03-16T06:58:49.661Z,93390.59
2018-03-16T07:01:18.120Z,93391.59
2018-03-16T07:03:46.520Z,93391.69
2018-03-16T07:06:14.915Z,93395.45
2018-03-16T07:08:43.311Z,93397.08
2018-03-16T07:11:11.733Z,93405.42
2018-03-16T07:13:40.173Z,93400.81
2018-03-16T07:16:08.641Z,93404.48
2018-03-16T07:18:37.058Z,93407.20
2018-03-16T07:21:05.503Z,93409.05
2018-03-16T07:23:33.921Z,93417.65
2018-03-16T07:26:02.344Z,93418.75
2018-03-16T07:28:30.727Z,93423.10
2018-03-16T07:30:59.156Z,93416.89
2018-03-16T07:33:27.550Z,93421.38
2018-03-16T07:35:55.996Z,93419.95
2018-03-16T07:38:24.382Z,93426.39
2018-03-16T07:40:52.823Z,93425.47
2018-03-16T07:43:21.230Z,93426.52
2018-03-16T07:45:55.510Z,93435.77
2018-03-16T07:48:23.898Z,93433.40
2018-03-16T07:50:52.287Z,93432.53
2018-03-16T07:53:20.753Z,93436.08
2018-03-16T07:55:49.169Z,93440.08
2018-03-16T07:58:17.659Z,93439.35
2018-03-16T08:00:46.045Z,93445.54
2018-03-16T08:03:14.473Z,93442.08
2018-03-16T08:05:42.872Z,93443.63
2018-03-16T08:08:11.265Z,93442.23
2018-03-16T08:10:39.710Z,93440.94
2018-03-16T08:13:08.133Z,93444.78
2018-03-16T08:15:36.527Z,93445.98
2018-03-16T08:18:04.904Z,93445.09
2018-03-16T08:20:33.303Z,93452.55
2018-03-16T08:23:01.753Z,93447.17
2018-03-16T08:25:30.244Z,93448.84
2018-03-16T08:27:58.728Z,93449.95
2018-03-16T08:30:27.137Z,93453.02
2018-03-16T08:32:55.518Z,93452.06
2018-03-16T08:35:23.916Z,93462.13
2018-03-16T08:37:52.317Z,93459.61
2018-03-16T08:40:20.797Z,93465.31
2018-03-16T08:42:49.183Z,93462.28
2018-03-16T08:45:17.583Z,93467.88
2018-03-16T08:47:45.954Z,93463.73
2018-03-16T08:50:14.445Z,93470.81
2018-03-16T08:52:42.880Z,93471.03
2018-03-16T08:55:11.257Z,93480.05
2018-03-16T08:57:39.677Z,93479.94
2018-03-16T09:00:08.078Z,93475.83
2018-03-16T09:02:36.560Z,93486.14
2018-03-16T09:05:05.275Z,93481.80
2018-03-16T09:07:33.675Z,93481.57
2018-03-16T09:10:02.075Z,93481.10
2018-03-16T09:12:30.520Z,93488.09
2018-03-16T09:14:58.892Z,93487.76
2018-03-16T09:17:27.335Z,93486.88
2018-03-16T09:19:55.728Z,93484.53
2018-03-16T09:22:24.127Z,93484.14
2018-03-16T09:24:52.524Z,93486.30
2018-03-16T09:27:20.936Z,93488.23
2018-03-16T09:29:49.363Z,93486.17
2018-03-16T09:32:17.763Z,93482.81
2018-03-16T09:34:46.155Z,93488.02
2018-03-16T09:37:14.551Z,93485.71
2018-03-16T09:39:42.966Z,93481.40
2018-03-16T09:42:11.548Z,93483.05
2018-03-16T09:44:39.928Z,93480.56
2018-03-16T09:47:08.323Z,93479.99
2018-03-16T09:49:36.733Z,93484.17
2018-03-16T09:52:05.139Z,93489.75
2018-03-16T09:54:45.894Z,93485.38
2018-03-16T09:57:14.322Z,93490.58
2018-03-16T09:59:42.711Z,93491.16
2018-03-16T10:02:11.140Z,93484.46
2018-03-16T10:04:39.557Z,93487.22
2018-03-16T10:07:08.009Z,93497.45
2018-03-16T10:09:36.404Z,93487.81
2018-03-16T10:12:04.913Z,93493.16
2018-03-16T10:14:33.288Z,93491.30
2018-03-16T10:17:01.693Z,93494.22
2018-03-16T10:19:30.153Z,93500.66
2018-03-16T10:21:58.643Z,93505.03
2018-03-16T10:24:27.024Z,93501.65
2018-03-16T10:26:55.465Z,93494.20
2018-03-16T10:29:24.150Z,93495.88
2018-03-16T10:31:52.588Z,93500.30
2018-03-16T10:34:20.989Z,93509.55
2018-03-16T10:36:49.377Z,93508.64
2018-03-16T10:39:17.825Z,93506.25
2018-03-16T10:41:46.220Z,93507.92
2018-03-16T10:44:14.640Z,93509.02
2018-03-16T10:46:43.054Z,93507.77
2018-03-16T10:49:11.486Z,93511.77
2018-03-16T10:51:39.860Z,93512.16
2018-03-16T10:54:08.320Z,93513.08
2018-03-16T10:56:36.737Z,93512.33
2018-03-16T10:59:05.128Z,93516.17
2018-03-16T11:01:39.289Z,93517.06
2018-03-16T11:04:13.481Z,93519.78
2018-03-16T11:06:46.847Z,93521.00
2018-03-16T11:09:15.287Z,93524.38
2018-03-16T11:11:43.744Z,93521.32
2018-03-16T11:14:13.214Z,93523.86
2018-03-16T11:16:41.690Z,93527.27
2018-03-16T11:19:10.097Z,93526.72
2018-03-16T11:21:38.493Z,93539.33
2018-03-16T11:24:06.894Z,93540.89
2018-03-16T11:26:35.280Z,93537.76
2018-03-16T11:29:03.868Z,93541.75
2018-03-16T11:31:32.357Z,93539.52
2018-03-16T11:34:00.794Z,93541.96
2018-03-16T11:36:29.357Z,93533.89
2018-03-16T11:38:57.874Z,93541.27
2018-03-16T11:41:26.377Z,93544.47
2018-03-16T11:43:54.863Z,93540.25
2018-03-16T11:46:23.401Z,93550.50
2018-03-16T11:48:51.829Z,93545.14
2018-03-16T11:51:20.373Z,93550.36
2018-03-16T11:53:48.826Z,93556.33
2018-03-16T11:56:17.276Z,93554.94
2018-03-16T11:58:45.692Z,93546.75
2018-03-16T12:01:14.203Z,93548.23
2018-03-16T12:03:42.884Z,93556.83
2018-03-16T12:06:11.439Z,93553.80
2018-03-16T12:08:39.862Z,93557.52
2018-03-16T12:11:08.332Z,93553.05
2018-03-16T12:13:36.861Z,93555.78
2018-03-16T12:16:05.514Z,93556.86
2018-03-16T12:18:33.968Z,93558.97
2018-03-16T12:21:02.615Z,93556.06
2018-03-16T12:23:31.049Z,93558.22
2018-03-16T12:25:59.449Z,93548.91
2018-03-16T12:28:49.176Z,93555.78
2018-03-16T12:30:56.409Z,93555.27
2018-03-16T12:33:24.808Z,93555.00
2018-03-16T12:35:53.218Z,93550.45
2018-03-16T12:38:21.639Z,93560.55
2018-03-16T12:40:50.034Z,93558.81
2018-03-16T12:43:18.646Z,93563.11
2018-03-16T12:45:47.042Z,93561.11
2018-03-16T12:48:15.448Z,93559.98
2018-03-16T12:50:43.923Z,93560.68
2018-03-16T12:53:12.323Z,93561.17
2018-03-16T12:55:40.720Z,93553.83
2018-03-16T12:58:09.320Z,93557.70
2018-03-16T13:00:37.836Z,93562.90
2018-03-16T13:03:06.261Z,93561.64
2018-03-16T13:05:34.679Z,93562.09
2018-03-16T13:08:03.115Z,93567.19
2018-03-16T13:10:31.520Z,93566.40
2018-03-16T13:12:59.966Z,93572.05
2018-03-16T13:15:28.349Z,93568.75
2018-03-16T13:17:56.771Z,93570.91
2018-03-16T13:20:25.156Z,93573.55
2018-03-16T13:22:53.567Z,93569.52
2018-03-16T13:25:22.040Z,93575.23
2018-03-16T13:27:50.480Z,93579.56
2018-03-16T13:30:18.877Z,93573.27
2018-03-16T13:32:47.265Z,93576.02
2018-03-16T13:35:15.676Z,93579.30
2018-03-16T13:37:44.144Z,93582.94
2018-03-16T13:40:12.531Z,93585.67
2018-03-16T13:42:40.911Z,93587.03
2018-03-16T13:45:09.373Z,93585.92
2018-03-16T13:47:37.764Z,93592.98
2018-03-16T13:50:06.222Z,93587.05
2018-03-16T13:52:34.616Z,93586.66
2018-03-16T13:55:03.021Z,93588.47
2018-03-16T13:57:31.406Z,93589.53
2018-03-16T13:59:59.804Z,93594.16
2018-03-16T14:02:28.272Z,93601.85
2018-03-16T14:04:56.749Z,93594.83
2018-03-16T14:07:25.129Z,93597.33
2018-03-16T14:09:53.520Z,93596.22
2018-03-16T14:12:21.910Z,93598.92
2018-03-16T14:14:50.333Z,93595.80
2018-03-16T14:17:18.725Z,93603.91
2018-03-16T14:19:47.104Z,93601.98
2018-03-16T14:22:15.525Z,93597.11
2018-03-16T14:24:43.916Z,93603.91
2018-03-16T14:27:12.362Z,93605.70
2018-03-16T14:29:40.745Z,93608.02
2018-03-16T14:32:09.139Z,93609.20
2018-03-16T14:34:37.515Z,93614.20
2018-03-16T14:37:05.938Z,93616.86
2018-03-16T14:39:34.394Z,93612.92
2018-03-16T14:42:02.805Z,93615.39
2018-03-16T14:44:31.193Z,93615.91
2018-03-16T14:46:59.577Z,93622.09
2018-03-16T14:49:27.972Z,93630.63
2018-03-16T14:51:56.419Z,93616.43
2018-03-16T14:54:24.797Z,93629.23
2018-03-16T14:56:53.201Z,93631.11
2018-03-16T14:59:21.689Z,93631.57
2018-03-16T15:01:50.062Z,93628.84
2018-03-16T15:04:18.572Z,93629.59
2018-03-16T15:06:46.940Z,93623.88
2018-03-16T15:09:15.334Z,93627.41
2018-03-16T15:11:43.717Z,93629.00
2018-03-16T15:14:12.200Z,93632.95
2018-03-16T15:16:40.680Z,93635.50
2018-03-16T15:19:09.184Z,93632.70
2018-03-16T15:21:37.631Z,93623.38
2018-03-16T15:24:06.025Z,93618.36
2018-03-16T15:26:34.533Z,93622.27
2018-03-16T15:29:03.040Z,93624.55
2018-03-16T15:31:31.443Z,93633.78
2018-03-16T15:33:59.888Z,93629.02
2018-03-16T15:36:28.422Z,93634.88
2018-03-16T15:38:56.791Z,93634.14
2018-03-16T15:41:25.152Z,93631.95
2018-03-16T15:43:53.553Z,93641.23
2018-03-16T15:46:21.918Z,93639.99
2018-03-16T15:48:50.306Z,93628.06
2018-03-16T15:51:18.760Z,93625.56
2018-03-16T15:53:47.150Z,93637.21
2018-03-16T15:56:15.602Z,93641.77
2018-03-16T15:58:43.992Z,93638.63
2018-03-16T16:01:12.374Z,93644.74
2018-03-16T16:03:40.804Z,93652.03
2018-03-16T16:06:09.195Z,93654.20
2018-03-16T16:08:37.617Z,93654.41
2018-03-16T16:11:06.005Z,93660.95
2018-03-16T16:13:34.470Z,93664.80
2018-03-16T16:16:02.941Z,93664.92
2018-03-16T16:18:31.336Z,93661.84
2018-03-16T16:20:59.785Z,93660.23
2018-03-16T16:23:28.249Z,93666.21
2018-03-16T16:25:56.632Z,93663.92
2018-03-16T16:28:24.986Z,93671.20
2018-03-16T16:30:53.381Z,93669.73
2018-03-16T16:33:21.899Z,93672.79
2018-03-16T16:35:50.304Z,93665.00
2018-03-16T16:38:18.713Z,93678.72
2018-03-16T16:40:47.074Z,93676.90
2018-03-16T16:43:15.431Z,93675.78
2018-03-16T16:45:43.897Z,93676.47
2018-03-16T16:48:12.278Z,93678.62
2018-03-16T16:50:40.687Z,93679.28
2018-03-16T16:53:09.182Z,93688.73
2018-03-16T16:55:37.595Z,93689.08
2018-03-16T16:58:06.101Z,93693.19
2018-03-16T17:00:34.495Z,93697.14
2018-03-16T17:03:02.896Z,93707.41
2018-03-16T17:05:31.440Z,93710.77
2018-03-16T17:07:59.912Z,93712.52
2018-03-16T17:10:28.398Z,93712.74
2018-03-16T17:12:56.759Z,93732.77
2018-03-16T17:15:25.126Z,93722.92
2018-03-16T17:17:53.502Z,93728.39
2018-03-16T17:20:21.888Z,93729.89
2018-03-16T17:22:50.249Z,93736.82
2018-03-16T17:25:18.634Z,93741.84
2018-03-16T17:27:47.079Z,93747.69
2018-03-16T17:30:15.453Z,93750.25
2018-03-16T17:32:43.955Z,93750.06
2018-03-16T17:35:12.480Z,93752.69
2018-03-16T17:37:40.885Z,93753.21
2018-03-16T17:40:09.278Z,93752.29
2018-03-16T17:42:37.644Z,93758.15
2018-03-16T17:45:06.112Z,93752.71
2018-03-16T17:47:34.509Z,93760.45
2018-03-16T17:50:02.866Z,93753.46
2018-03-16T17:52:31.244Z,93760.89
2018-03-16T17:54:59.613Z,93761.05
2018-03-16T17:57:27.963Z,93763.83
2018-03-16T17:59:56.392Z,93769.06
2018-03-16T18:02:24.747Z,93768.66
2018-03-16T18:04:53.104Z,93783.38
2018-03-16T18:07:21.463Z,93766.93
2018-03-16T18:09:49.829Z,93778.42
2018-03-16T18:12:18.232Z,93780.02
2018-03-16T18:14:46.640Z,93782.24
2018-03-16T18:17:15.068Z,93778.91
2018-03-16T18:19:43.452Z,93803.66
2018-03-16T18:22:11.828Z,93790.47
2018-03-16T18:24:40.232Z,93796.91
2018-03-16T18:27:08.680Z,93786.44
2018-03-16T18:29:37.289Z,93793.72
2018-03-16T18:32:05.716Z,93792.80
2018-03-16T18:34:34.086Z,93798.84
2018-03-16T18:37:02.460Z,93798.98
2018-03-16T18:39:30.829Z,93794.77
2018-03-16T18:41:59.250Z,93799.13
2018-03-16T18:44:27.753Z,93798.25
2018-03-16T18:46:56.221Z,93807.78
2018-03-16T18:49:24.589Z,93799.67
2018-03-16T18:51:52.958Z,93803.78
2018-03-16T18:54:21.359Z,93809.57
2018-03-16T18:56:49.819Z,93828.31
2018-03-16T18:59:18.365Z,93816.99
2018-03-16T19:01:46.746Z,93805.73
2018-03-16T19:04:15.152Z,93811.25
2018-03-16T19:06:43.532Z,93824.00
2018-03-16T19:09:11.911Z,93811.34
2018-03-16T19:11:40.354Z,93815.53
2018-03-16T19:14:08.715Z,93817.14
2018-03-16T19:16:37.120Z,93809.22
2018-03-16T19:19:05.490Z,93818.44
2018-03-16T19:21:33.857Z,93817.30
2018-03-16T19:24:02.264Z,93815.53
2018-03-16T19:26:30.662Z,93813.64
2018-03-16T19:28:59.174Z,93819.13
2018-03-16T19:31:27.568Z,93830.16
2018-03-16T19:33:55.976Z,93828.27
2018-03-16T19:36:24.327Z,93827.13
2018-03-16T19:38:52.721Z,93831.20
2018-03-16T19:41:21.145Z,93840.40
2018-03-16T19:43:49.568Z,93830.23
2018-03-16T19:46:17.962Z,93854.23
2018-03-16T19:48:46.447Z,93829.27
2018-03-16T19:51:14.829Z,93835.69
2018-03-16T19:53:43.237Z,93828.75
2018-03-16T19:56:11.694Z,93832.02
2018-03-16T19:58:40.097Z,93826.31
2018-03-16T20:01:08.503Z,93828.88
2018-03-16T20:03:36.871Z,93841.07
2018-03-16T20:06:05.320Z,93831.30
2018-03-16T20:08:33.862Z,93839.21
2018-03-16T20:11:02.229Z,93843.91
2018-03-16T20:13:30.591Z,93842.90
2018-03-16T20:15:59.064Z,93838.41
2018-03-16T20:18:27.477Z,93840.90
2018-03-16T20:20:55.828Z,93839.72
2018-03-16T20:23:24.219Z,93842.64
2018-03-16T20:25:52.598Z,93837.27
2018-03-16T20:28:20.965Z,93839.83
2018-03-16T20:30:49.404Z,93844.97
2018-03-16T20:33:17.775Z,93849.92
2018-03-16T20:35:46.137Z,93846.56
2018-03-16T20:38:14.501Z,93851.58
2018-03-16T20:40:42.873Z,93861.84
2018-03-16T20:43:11.580Z,93860.66
2018-03-16T20:45:40.011Z,93866.78
2018-03-16T20:48:08.377Z,93868.04
2018-03-16T20:50:36.752Z,93873.84
2018-03-16T20:53:05.115Z,93871.56
2018-03-16T20:55:35.298Z,93866.16
2018-03-16T20:58:07.010Z,93880.02
2018-03-16T21:00:35.556Z,93868.94
2018-03-16T21:03:03.928Z,93883.41
2018-03-16T21:05:32.322Z,93887.06
2018-03-16T21:08:00.689Z,93883.11
2018-03-16T21:10:29.063Z,93880.48
2018-03-16T21:12:57.470Z,93880.67
2018-03-16T21:15:25.847Z,93884.47
2018-03-16T21:17:54.624Z,93886.92
2018-03-16T21:20:23.016Z,93894.36
2018-03-16T21:22:51.500Z,93892.02
2018-03-16T21:25:19.966Z,93892.77
2018-03-16T21:27:48.305Z,93896.89
2018-03-16T21:30:16.749Z,93900.47
2018-03-16T21:32:45.142Z,93896.87
2018-03-16T21:35:13.513Z,93899.70
2018-03-16T21:37:41.902Z,93901.11
2018-03-16T21:40:10.264Z,93901.09
2018-03-16T21:42:38.690Z,93916.42
2018-03-16T21:45:07.068Z,93900.11
2018-03-16T21:47:35.432Z,93901.09
2018-03-16T21:50:03.791Z,93905.95
2018-03-16T21:52:32.164Z,93901.55
2018-03-16T21:55:00.972Z,93901.25
2018-03-16T21:57:29.347Z,93899.91
2018-03-16T21:59:57.833Z,93905.05
2018-03-16T22:02:26.225Z,93907.80
2018-03-16T22:04:54.616Z,93906.04
2018-03-16T22:07:23.293Z,93905.28
2018-03-16T22:09:51.669Z,93906.30
2018-03-16T22:12:20.132Z,93904.02
2018-03-16T22:14:48.499Z,93902.16
2018-03-16T22:17:16.920Z,93892.05
2018-03-16T22:19:45.599Z,93887.47
2018-03-16T22:22:13.965Z,93891.73
2018-03-16T22:24:42.311Z,93900.32
2018-03-16T22:27:10.693Z,93896.37
2018-03-16T22:29:39.059Z,93896.91
2018-03-16T22:32:07.934Z,93900.08
2018-03-16T22:34:36.315Z,93915.31
2018-03-16T22:37:04.699Z,93907.44
2018-03-16T22:39:33.084Z,93910.47
2018-03-16T22:42:01.548Z,93900.86
2018-03-16T22:44:30.013Z,93904.27
2018-03-16T22:46:58.378Z,93898.02
2018-03-16T22:49:26.741Z,93899.19
2018-03-16T22:51:55.154Z,93899.68
2018-03-16T22:54:23.528Z,93924.41
2018-03-16T22:56:52.279Z,93896.04
2018-03-16T22:59:20.624Z,93896.72
2018-03-16T23:01:48.972Z,93896.55
2018-03-16T23:04:17.342Z,93898.77
2018-03-16T23:06:45.817Z,93894.84
2018-03-16T23:09:14.251Z,93894.89
2018-03-16T23:11:42.628Z,93886.97
2018-03-16T23:14:10.976Z,93891.15
2018-03-16T23:16:39.355Z,93885.88
2018-03-16T23:19:07.851Z,93891.49
2018-03-16T23:21:36.218Z,93898.45
2018-03-16T23:24:04.579Z,93887.13
2018-03-16T23:26:32.944Z,93894.02
2018-03-16T23:29:01.315Z,93885.63
2018-03-16T23:31:29.723Z,93905.10
2018-03-16T23:33:58.077Z,93885.95
2018-03-16T23:36:26.449Z,93885.19
2018-03-16T23:38:54.823Z,93879.50
2018-03-16T23:41:23.187Z,93882.41
2018-03-16T23:43:51.904Z,93878.94
2018-03-16T23:46:20.291Z,93879.27
2018-03-16T23:48:48.669Z,93873.99
2018-03-16T23:51:17.038Z,93877.94
2018-03-16T23:53:45.397Z,93878.25
2018-03-16T23:56:13.792Z,93878.27
2018-03-16T23:58:42.167Z,93876.28
